sensor_id;sensor_type;location;lat;lon;timestamp;pressure;altitude;pressure_sealevel;temperature;humidity
21730;BME280;11027;51.030;13.812;2023-04-12T00:01:22;99954.56;;;6.00;70.53
21730;BME280;11027;51.030;13.812;2023-04-12T00:03:48;99944.72;;;5.99;70.66
21730;BME280;11027;51.030;13.812;2023-04-12T00:06:15;99951.16;;;5.98;70.80
21730;BME280;11027;51.030;13.812;2023-04-12T00:08:41;99948.03;;;5.93;71.14
21730;BME280;11027;51.030;13.812;2023-04-12T00:11:07;99946.25;;;5.84;71.07
21730;BME280;11027;51.030;13.812;2023-04-12T00:13:32;99944.50;;;5.74;71.15
21730;BME280;11027;51.030;13.812;2023-04-12T00:15:57;99955.53;;;5.63;71.26
21730;BME280;11027;51.030;13.812;2023-04-12T00:18:23;99950.03;;;5.55;71.46
21730;BME280;11027;51.030;13.812;2023-04-12T00:20:49;99944.78;;;5.53;71.82
21730;BME280;11027;51.030;13.812;2023-04-12T00:23:14;99946.63;;;5.53;72.09
21730;BME280;11027;51.030;13.812;2023-04-12T00:25:41;99937.22;;;5.57;72.24
21730;BME280;11027;51.030;13.812;2023-04-12T00:28:06;99937.63;;;5.62;72.13
21730;BME280;11027;51.030;13.812;2023-04-12T00:30:32;99941.56;;;5.68;71.93
21730;BME280;11027;51.030;13.812;2023-04-12T00:32:57;99946.78;;;5.69;71.72
21730;BME280;11027;51.030;13.812;2023-04-12T00:35:23;99937.47;;;5.64;71.58
21730;BME280;11027;51.030;13.812;2023-04-12T00:37:49;99930.91;;;5.66;71.26
21730;BME280;11027;51.030;13.812;2023-04-12T00:40:14;99920.09;;;5.66;71.32
21730;BME280;11027;51.030;13.812;2023-04-12T00:42:40;99918.09;;;5.68;71.40
21730;BME280;11027;51.030;13.812;2023-04-12T00:45:06;99914.00;;;5.64;71.38
21730;BME280;11027;51.030;13.812;2023-04-12T00:47:34;99921.41;;;5.62;71.50
21730;BME280;11027;51.030;13.812;2023-04-12T00:50:00;99923.28;;;5.61;71.42
21730;BME280;11027;51.030;13.812;2023-04-12T00:52:26;99919.16;;;5.57;71.51
21730;BME280;11027;51.030;13.812;2023-04-12T00:55:00;99914.84;;;5.47;71.42
21730;BME280;11027;51.030;13.812;2023-04-12T00:57:25;99911.22;;;5.38;71.52
21730;BME280;11027;51.030;13.812;2023-04-12T00:59:51;99911.81;;;5.32;71.63
21730;BME280;11027;51.030;13.812;2023-04-12T01:02:17;99919.09;;;5.31;71.56
21730;BME280;11027;51.030;13.812;2023-04-12T01:04:42;99911.28;;;5.28;71.19
21730;BME280;11027;51.030;13.812;2023-04-12T01:07:32;99909.88;;;5.24;71.30
21730;BME280;11027;51.030;13.812;2023-04-12T01:15:58;99903.13;;;5.10;72.15
21730;BME280;11027;51.030;13.812;2023-04-12T01:18:29;99895.19;;;5.09;72.38
21730;BME280;11027;51.030;13.812;2023-04-12T01:21:03;99883.00;;;5.05;72.55
21730;BME280;11027;51.030;13.812;2023-04-12T01:23:47;99889.00;;;4.98;72.61
21730;BME280;11027;51.030;13.812;2023-04-12T01:26:35;99894.56;;;4.97;72.92
21730;BME280;11027;51.030;13.812;2023-04-12T01:29:08;99893.00;;;4.94;72.82
21730;BME280;11027;51.030;13.812;2023-04-12T01:31:35;99884.91;;;4.94;72.91
21730;BME280;11027;51.030;13.812;2023-04-12T01:34:02;99883.59;;;4.98;72.79
21730;BME280;11027;51.030;13.812;2023-04-12T01:36:28;99878.19;;;4.98;72.76
21730;BME280;11027;51.030;13.812;2023-04-12T01:38:55;99883.59;;;4.98;72.73
21730;BME280;11027;51.030;13.812;2023-04-12T01:41:21;99877.22;;;4.99;72.82
21730;BME280;11027;51.030;13.812;2023-04-12T01:43:46;99871.13;;;4.97;72.88
21730;BME280;11027;51.030;13.812;2023-04-12T01:46:14;99866.31;;;4.91;73.05
21730;BME280;11027;51.030;13.812;2023-04-12T01:48:47;99865.16;;;4.94;73.08
21730;BME280;11027;51.030;13.812;2023-04-12T01:54:22;99850.00;;;4.93;73.03
21730;BME280;11027;51.030;13.812;2023-04-12T01:56:53;99847.28;;;4.93;73.01
21730;BME280;11027;51.030;13.812;2023-04-12T01:59:22;99844.03;;;4.89;72.89
21730;BME280;11027;51.030;13.812;2023-04-12T02:01:50;99838.22;;;4.84;72.95
21730;BME280;11027;51.030;13.812;2023-04-12T02:04:18;99831.44;;;4.80;73.27
21730;BME280;11027;51.030;13.812;2023-04-12T02:06:45;99824.25;;;4.71;73.23
21730;BME280;11027;51.030;13.812;2023-04-12T02:09:10;99835.66;;;4.65;73.54
21730;BME280;11027;51.030;13.812;2023-04-12T02:11:36;99835.53;;;4.56;73.57
21730;BME280;11027;51.030;13.812;2023-04-12T02:14:01;99829.06;;;4.49;73.78
21730;BME280;11027;51.030;13.812;2023-04-12T02:16:26;99825.09;;;4.44;74.00
21730;BME280;11027;51.030;13.812;2023-04-12T02:18:53;99820.31;;;4.37;74.21
21730;BME280;11027;51.030;13.812;2023-04-12T02:21:20;99824.03;;;4.36;74.12
21730;BME280;11027;51.030;13.812;2023-04-12T02:23:45;99816.06;;;4.35;74.37
21730;BME280;11027;51.030;13.812;2023-04-12T02:26:11;99818.91;;;4.33;74.56
21730;BME280;11027;51.030;13.812;2023-04-12T02:28:37;99807.28;;;4.33;74.42
21730;BME280;11027;51.030;13.812;2023-04-12T02:31:03;99812.34;;;4.36;74.32
21730;BME280;11027;51.030;13.812;2023-04-12T02:33:29;99805.28;;;4.35;74.26
21730;BME280;11027;51.030;13.812;2023-04-12T02:35:55;99810.97;;;4.32;74.35
21730;BME280;11027;51.030;13.812;2023-04-12T02:38:21;99812.41;;;4.26;74.51
21730;BME280;11027;51.030;13.812;2023-04-12T02:40:46;99813.69;;;4.22;74.33
21730;BME280;11027;51.030;13.812;2023-04-12T02:43:11;99810.47;;;4.18;74.93
21730;BME280;11027;51.030;13.812;2023-04-12T02:45:37;99809.31;;;4.21;74.82
21730;BME280;11027;51.030;13.812;2023-04-12T02:48:02;99812.75;;;4.13;75.08
21730;BME280;11027;51.030;13.812;2023-04-12T02:50:29;99815.31;;;4.05;75.23
21730;BME280;11027;51.030;13.812;2023-04-12T02:52:54;99800.75;;;3.98;75.39
21730;BME280;11027;51.030;13.812;2023-04-12T02:55:20;99802.31;;;3.91;75.71
21730;BME280;11027;51.030;13.812;2023-04-12T02:57:46;99810.69;;;3.88;75.84
21730;BME280;11027;51.030;13.812;2023-04-12T03:00:13;99809.72;;;3.89;75.98
21730;BME280;11027;51.030;13.812;2023-04-12T03:02:40;99809.44;;;3.82;76.06
21730;BME280;11027;51.030;13.812;2023-04-12T03:05:05;99811.72;;;3.77;76.08
21730;BME280;11027;51.030;13.812;2023-04-12T03:07:32;99813.56;;;3.76;76.40
21730;BME280;11027;51.030;13.812;2023-04-12T03:09:57;99804.09;;;3.72;76.41
21730;BME280;11027;51.030;13.812;2023-04-12T03:12:23;99810.88;;;3.76;76.50
21730;BME280;11027;51.030;13.812;2023-04-12T03:14:48;99793.81;;;3.86;76.25
21730;BME280;11027;51.030;13.812;2023-04-12T03:17:13;99795.22;;;3.90;76.15
21730;BME280;11027;51.030;13.812;2023-04-12T03:19:39;99797.22;;;3.88;76.02
21730;BME280;11027;51.030;13.812;2023-04-12T03:22:04;99783.34;;;3.83;76.05
21730;BME280;11027;51.030;13.812;2023-04-12T03:24:31;99784.78;;;3.77;76.06
21730;BME280;11027;51.030;13.812;2023-04-12T03:26:58;99771.75;;;3.72;76.08
21730;BME280;11027;51.030;13.812;2023-04-12T03:29:24;99772.63;;;3.63;76.28
21730;BME280;11027;51.030;13.812;2023-04-12T03:31:49;99769.53;;;3.58;76.56
21730;BME280;11027;51.030;13.812;2023-04-12T03:34:14;99771.50;;;3.56;76.68
21730;BME280;11027;51.030;13.812;2023-04-12T03:36:40;99775.75;;;3.58;76.88
21730;BME280;11027;51.030;13.812;2023-04-12T03:39:05;99775.63;;;3.60;77.01
21730;BME280;11027;51.030;13.812;2023-04-12T03:41:31;99774.91;;;3.58;77.00
21730;BME280;11027;51.030;13.812;2023-04-12T03:43:56;99768.81;;;3.56;76.99
21730;BME280;11027;51.030;13.812;2023-04-12T03:46:21;99761.00;;;3.53;76.90
21730;BME280;11027;51.030;13.812;2023-04-12T03:48:47;99763.84;;;3.51;77.02
21730;BME280;11027;51.030;13.812;2023-04-12T03:51:13;99756.78;;;3.50;76.99
21730;BME280;11027;51.030;13.812;2023-04-12T03:53:39;99760.44;;;3.49;77.08
21730;BME280;11027;51.030;13.812;2023-04-12T03:56:05;99763.00;;;3.51;77.24
21730;BME280;11027;51.030;13.812;2023-04-12T03:58:30;99748.13;;;3.47;77.23
21730;BME280;11027;51.030;13.812;2023-04-12T04:00:58;99741.75;;;3.48;77.46
21730;BME280;11027;51.030;13.812;2023-04-12T04:03:25;99744.84;;;3.53;77.33
21730;BME280;11027;51.030;13.812;2023-04-12T04:05:54;99732.66;;;3.58;77.24
21730;BME280;11027;51.030;13.812;2023-04-12T04:08:19;99728.81;;;3.61;76.97
21730;BME280;11027;51.030;13.812;2023-04-12T04:10:45;99724.28;;;3.62;76.92
21730;BME280;11027;51.030;13.812;2023-04-12T04:13:10;99723.41;;;3.61;76.83
21730;BME280;11027;51.030;13.812;2023-04-12T04:15:35;99733.63;;;3.57;76.86
21730;BME280;11027;51.030;13.812;2023-04-12T04:18:00;99722.31;;;3.54;76.87
21730;BME280;11027;51.030;13.812;2023-04-12T04:20:26;99725.03;;;3.54;77.05
21730;BME280;11027;51.030;13.812;2023-04-12T04:22:51;99729.00;;;3.50;77.12
21730;BME280;11027;51.030;13.812;2023-04-12T04:25:17;99731.28;;;3.45;77.10
21730;BME280;11027;51.030;13.812;2023-04-12T04:27:43;99725.19;;;3.43;77.14
21730;BME280;11027;51.030;13.812;2023-04-12T04:30:10;99724.19;;;3.44;77.45
21730;BME280;11027;51.030;13.812;2023-04-12T04:32:37;99724.19;;;3.44;77.39
21730;BME280;11027;51.030;13.812;2023-04-12T04:35:03;99726.59;;;3.47;77.55
21730;BME280;11027;51.030;13.812;2023-04-12T04:37:28;99722.22;;;3.46;77.48
21730;BME280;11027;51.030;13.812;2023-04-12T04:39:59;99714.13;;;3.46;77.42
21730;BME280;11027;51.030;13.812;2023-04-12T04:42:25;99710.84;;;3.52;77.41
21730;BME280;11027;51.030;13.812;2023-04-12T04:44:50;99719.31;;;3.57;77.18
21730;BME280;11027;51.030;13.812;2023-04-12T04:47:16;99712.38;;;3.64;76.81
21730;BME280;11027;51.030;13.812;2023-04-12T04:49:43;99708.97;;;3.62;76.74
21730;BME280;11027;51.030;13.812;2023-04-12T04:52:08;99720.34;;;3.56;76.88
21730;BME280;11027;51.030;13.812;2023-04-12T04:54:33;99725.28;;;3.51;76.81
21730;BME280;11027;51.030;13.812;2023-04-12T04:57:00;99714.84;;;3.48;76.93
21730;BME280;11027;51.030;13.812;2023-04-12T04:59:25;99707.59;;;3.48;77.02
21730;BME280;11027;51.030;13.812;2023-04-12T05:01:50;99715.81;;;3.47;77.25
21730;BME280;11027;51.030;13.812;2023-04-12T05:04:16;99716.38;;;3.50;77.03
21730;BME280;11027;51.030;13.812;2023-04-12T05:06:41;99710.25;;;3.58;76.96
21730;BME280;11027;51.030;13.812;2023-04-12T05:09:06;99714.63;;;3.59;77.04
21730;BME280;11027;51.030;13.812;2023-04-12T05:11:32;99714.50;;;3.60;76.98
21730;BME280;11027;51.030;13.812;2023-04-12T05:13:57;99709.25;;;3.59;77.07
21730;BME280;11027;51.030;13.812;2023-04-12T05:16:22;99715.34;;;3.61;77.09
21730;BME280;11027;51.030;13.812;2023-04-12T05:18:47;99707.13;;;3.63;77.16
21730;BME280;11027;51.030;13.812;2023-04-12T05:21:13;99709.69;;;3.64;77.36
21730;BME280;11027;51.030;13.812;2023-04-12T05:23:45;99713.06;;;3.66;77.28
21730;BME280;11027;51.030;13.812;2023-04-12T05:26:11;99711.88;;;3.78;77.22
21730;BME280;11027;51.030;13.812;2023-04-12T05:28:36;99703.91;;;3.87;76.84
21730;BME280;11027;51.030;13.812;2023-04-12T05:31:01;99694.66;;;3.89;76.82
21730;BME280;11027;51.030;13.812;2023-04-12T05:33:26;99692.81;;;3.90;76.70
21730;BME280;11027;51.030;13.812;2023-04-12T05:35:52;99685.97;;;3.95;76.71
21730;BME280;11027;51.030;13.812;2023-04-12T05:38:17;99687.94;;;4.03;76.53
21730;BME280;11027;51.030;13.812;2023-04-12T05:40:47;99681.94;;;4.09;76.47
21730;BME280;11027;51.030;13.812;2023-04-12T05:43:14;99679.66;;;4.14;76.33
21730;BME280;11027;51.030;13.812;2023-04-12T05:45:39;99677.94;;;4.13;76.39
21730;BME280;11027;51.030;13.812;2023-04-12T05:48:05;99665.16;;;4.15;76.41
21730;BME280;11027;51.030;13.812;2023-04-12T05:50:31;99666.00;;;4.16;76.27
21730;BME280;11027;51.030;13.812;2023-04-12T05:52:56;99654.78;;;4.20;76.48
21730;BME280;11027;51.030;13.812;2023-04-12T05:55:21;99649.75;;;4.26;76.36
21730;BME280;11027;51.030;13.812;2023-04-12T05:57:46;99646.63;;;4.30;76.35
21730;BME280;11027;51.030;13.812;2023-04-12T06:00:12;99641.47;;;4.37;76.38
21730;BME280;11027;51.030;13.812;2023-04-12T06:02:41;99631.72;;;4.44;76.19
21730;BME280;11027;51.030;13.812;2023-04-12T06:05:07;99628.13;;;4.53;76.22
21730;BME280;11027;51.030;13.812;2023-04-12T06:07:33;99627.66;;;4.58;76.02
21730;BME280;11027;51.030;13.812;2023-04-12T06:09:58;99622.78;;;4.61;75.82
21730;BME280;11027;51.030;13.812;2023-04-12T06:12:23;99622.50;;;4.65;76.03
21730;BME280;11027;51.030;13.812;2023-04-12T06:14:49;99613.38;;;4.66;75.97
21730;BME280;11027;51.030;13.812;2023-04-12T06:17:14;99613.94;;;4.69;75.96
21730;BME280;11027;51.030;13.812;2023-04-12T06:19:39;99599.97;;;4.74;76.06
21730;BME280;11027;51.030;13.812;2023-04-12T06:22:05;99595.94;;;4.78;76.02
21730;BME280;11027;51.030;13.812;2023-04-12T06:24:30;99593.63;;;4.83;75.86
21730;BME280;11027;51.030;13.812;2023-04-12T06:26:55;99589.28;;;4.90;75.89
21730;BME280;11027;51.030;13.812;2023-04-12T06:29:21;99578.88;;;4.95;75.76
21730;BME280;11027;51.030;13.812;2023-04-12T06:31:46;99574.00;;;4.99;75.64
21730;BME280;11027;51.030;13.812;2023-04-12T06:34:12;99571.50;;;5.06;75.83
21730;BME280;11027;51.030;13.812;2023-04-12T06:36:37;99562.06;;;5.10;75.71
21730;BME280;11027;51.030;13.812;2023-04-12T06:39:05;99559.72;;;5.15;75.66
21730;BME280;11027;51.030;13.812;2023-04-12T06:41:31;99554.38;;;5.23;75.78
21730;BME280;11027;51.030;13.812;2023-04-12T06:43:56;99545.66;;;5.29;75.59
21730;BME280;11027;51.030;13.812;2023-04-12T06:46:26;99543.97;;;5.36;75.63
21730;BME280;11027;51.030;13.812;2023-04-12T06:48:51;99546.03;;;5.43;75.46
21730;BME280;11027;51.030;13.812;2023-04-12T06:51:17;99539.66;;;5.52;75.34
21730;BME280;11027;51.030;13.812;2023-04-12T06:53:42;99543.22;;;5.60;75.16
21730;BME280;11027;51.030;13.812;2023-04-12T06:56:07;99528.91;;;5.68;74.94
21730;BME280;11027;51.030;13.812;2023-04-12T06:58:33;99515.72;;;5.73;74.81
21730;BME280;11027;51.030;13.812;2023-04-12T07:01:05;99523.84;;;5.81;74.39
21730;BME280;11027;51.030;13.812;2023-04-12T07:03:30;99521.00;;;5.91;74.17
21730;BME280;11027;51.030;13.812;2023-04-12T07:05:57;99520.19;;;5.99;73.88
21730;BME280;11027;51.030;13.812;2023-04-12T07:08:24;99514.97;;;6.06;73.59
21730;BME280;11027;51.030;13.812;2023-04-12T07:10:53;99510.59;;;6.13;73.59
21730;BME280;11027;51.030;13.812;2023-04-12T07:13:18;99519.53;;;6.21;73.25
21730;BME280;11027;51.030;13.812;2023-04-12T07:15:43;99517.88;;;6.29;73.15
21730;BME280;11027;51.030;13.812;2023-04-12T07:18:08;99507.38;;;6.34;72.94
21730;BME280;11027;51.030;13.812;2023-04-12T07:20:34;99502.97;;;6.41;72.67
21730;BME280;11027;51.030;13.812;2023-04-12T07:22:59;99500.59;;;6.46;72.46
21730;BME280;11027;51.030;13.812;2023-04-12T07:25:24;99503.66;;;6.51;72.31
21730;BME280;11027;51.030;13.812;2023-04-12T07:27:49;99495.38;;;6.53;72.13
21730;BME280;11027;51.030;13.812;2023-04-12T07:30:15;99495.53;;;6.59;72.19
21730;BME280;11027;51.030;13.812;2023-04-12T07:32:40;99504.00;;;6.65;72.00
21730;BME280;11027;51.030;13.812;2023-04-12T07:35:06;99495.19;;;6.71;71.87
21730;BME280;11027;51.030;13.812;2023-04-12T07:37:31;99485.31;;;6.78;71.99
21730;BME280;11027;51.030;13.812;2023-04-12T07:39:56;99474.47;;;6.86;71.82
21730;BME280;11027;51.030;13.812;2023-04-12T07:42:22;99472.78;;;6.93;71.66
21730;BME280;11027;51.030;13.812;2023-04-12T07:44:47;99472.75;;;7.01;71.34
21730;BME280;11027;51.030;13.812;2023-04-12T07:47:12;99471.69;;;7.11;70.92
21730;BME280;11027;51.030;13.812;2023-04-12T07:49:37;99463.53;;;7.19;70.80
21730;BME280;11027;51.030;13.812;2023-04-12T07:52:03;99467.91;;;7.28;70.56
21730;BME280;11027;51.030;13.812;2023-04-12T07:54:28;99463.66;;;7.34;70.29
21730;BME280;11027;51.030;13.812;2023-04-12T07:56:58;99450.22;;;7.40;69.87
21730;BME280;11027;51.030;13.812;2023-04-12T07:59:24;99447.84;;;7.46;69.72
21730;BME280;11027;51.030;13.812;2023-04-12T08:01:49;99439.66;;;7.54;69.61
21730;BME280;11027;51.030;13.812;2023-04-12T08:04:14;99436.50;;;7.65;69.37
21730;BME280;11027;51.030;13.812;2023-04-12T08:06:39;99430.03;;;7.74;69.01
21730;BME280;11027;51.030;13.812;2023-04-12T08:09:05;99422.31;;;7.86;69.02
21730;BME280;11027;51.030;13.812;2023-04-12T08:11:30;99416.28;;;7.99;68.29
21730;BME280;11027;51.030;13.812;2023-04-12T08:13:56;99406.84;;;8.10;67.73
21730;BME280;11027;51.030;13.812;2023-04-12T08:16:21;99407.25;;;8.21;66.78
21730;BME280;11027;51.030;13.812;2023-04-12T08:18:46;99405.78;;;8.34;65.96
21730;BME280;11027;51.030;13.812;2023-04-12T08:21:12;99402.00;;;8.43;64.87
21730;BME280;11027;51.030;13.812;2023-04-12T08:23:37;99398.72;;;8.48;63.88
21730;BME280;11027;51.030;13.812;2023-04-12T08:26:02;99400.22;;;8.50;63.13
21730;BME280;11027;51.030;13.812;2023-04-12T08:28:28;99395.91;;;8.56;58.82
21730;BME280;11027;51.030;13.812;2023-04-12T08:30:54;99407.25;;;8.59;57.73
21730;BME280;11027;51.030;13.812;2023-04-12T08:33:20;99398.53;;;8.64;57.21
21730;BME280;11027;51.030;13.812;2023-04-12T08:35:45;99396.28;;;8.68;56.77
21730;BME280;11027;51.030;13.812;2023-04-12T08:38:11;99386.75;;;8.72;57.06
21730;BME280;11027;51.030;13.812;2023-04-12T08:40:36;99391.06;;;8.81;57.24
21730;BME280;11027;51.030;13.812;2023-04-12T08:43:06;99380.75;;;8.91;57.08
21730;BME280;11027;51.030;13.812;2023-04-12T08:45:34;99375.22;;;8.99;56.74
21730;BME280;11027;51.030;13.812;2023-04-12T08:48:01;99373.63;;;9.05;55.98
21730;BME280;11027;51.030;13.812;2023-04-12T08:50:27;99364.88;;;9.10;55.60
21730;BME280;11027;51.030;13.812;2023-04-12T08:52:54;99359.34;;;9.18;55.06
21730;BME280;11027;51.030;13.812;2023-04-12T08:55:20;99368.03;;;9.28;55.47
21730;BME280;11027;51.030;13.812;2023-04-12T08:57:46;99354.31;;;9.36;54.91
21730;BME280;11027;51.030;13.812;2023-04-12T09:00:12;99353.94;;;9.39;54.21
21730;BME280;11027;51.030;13.812;2023-04-12T09:02:39;99360.66;;;9.44;53.77
21730;BME280;11027;51.030;13.812;2023-04-12T09:05:07;99351.09;;;9.48;53.44
21730;BME280;11027;51.030;13.812;2023-04-12T09:07:34;99348.63;;;9.53;52.82
21730;BME280;11027;51.030;13.812;2023-04-12T09:09:59;99349.25;;;9.55;52.39
21730;BME280;11027;51.030;13.812;2023-04-12T09:12:25;99343.69;;;9.63;51.97
21730;BME280;11027;51.030;13.812;2023-04-12T09:15:08;99341.25;;;9.68;52.51
21730;BME280;11027;51.030;13.812;2023-04-12T09:17:35;99347.19;;;9.78;52.16
21730;BME280;11027;51.030;13.812;2023-04-12T09:20:02;99333.47;;;9.87;51.68
21730;BME280;11027;51.030;13.812;2023-04-12T09:22:35;99336.03;;;9.95;51.34
21730;BME280;11027;51.030;13.812;2023-04-12T09:25:02;99332.72;;;9.99;51.39
21730;BME280;11027;51.030;13.812;2023-04-12T09:27:27;99336.16;;;10.08;51.33
21730;BME280;11027;51.030;13.812;2023-04-12T09:30:09;99323.88;;;10.19;51.43
21730;BME280;11027;51.030;13.812;2023-04-12T09:32:35;99319.59;;;10.31;51.19
21730;BME280;11027;51.030;13.812;2023-04-12T09:35:01;99317.94;;;10.37;51.25
21730;BME280;11027;51.030;13.812;2023-04-12T09:37:27;99317.53;;;10.40;50.25
21730;BME280;11027;51.030;13.812;2023-04-12T09:40:22;99302.06;;;10.40;50.28
21730;BME280;11027;51.030;13.812;2023-04-12T09:42:50;99289.50;;;10.46;51.04
21730;BME280;11027;51.030;13.812;2023-04-12T09:45:23;99283.28;;;10.52;51.49
21730;BME280;11027;51.030;13.812;2023-04-12T09:47:50;99272.84;;;10.63;51.80
21730;BME280;11027;51.030;13.812;2023-04-12T09:50:28;99278.75;;;10.73;51.18
21730;BME280;11027;51.030;13.812;2023-04-12T09:52:58;99266.63;;;10.82;51.11
21730;BME280;11027;51.030;13.812;2023-04-12T09:55:25;99267.06;;;10.92;51.11
21730;BME280;11027;51.030;13.812;2023-04-12T09:57:52;99267.56;;;11.16;51.90
21730;BME280;11027;51.030;13.812;2023-04-12T10:00:21;99268.44;;;11.43;50.36
21730;BME280;11027;51.030;13.812;2023-04-12T10:02:49;99257.56;;;11.50;47.96
21730;BME280;11027;51.030;13.812;2023-04-12T10:05:16;99256.28;;;11.59;47.24
21730;BME280;11027;51.030;13.812;2023-04-12T10:07:43;99257.34;;;11.65;46.73
21730;BME280;11027;51.030;13.812;2023-04-12T10:10:10;99247.69;;;11.69;47.08
21730;BME280;11027;51.030;13.812;2023-04-12T10:12:37;99229.00;;;11.72;47.21
21730;BME280;11027;51.030;13.812;2023-04-12T10:15:04;99229.44;;;11.76;46.47
21730;BME280;11027;51.030;13.812;2023-04-12T10:17:40;99221.00;;;11.77;46.42
21730;BME280;11027;51.030;13.812;2023-04-12T10:20:06;99224.81;;;11.76;46.51
21730;BME280;11027;51.030;13.812;2023-04-12T10:22:31;99212.63;;;11.72;46.71
21730;BME280;11027;51.030;13.812;2023-04-12T10:24:58;99217.66;;;11.75;47.39
21730;BME280;11027;51.030;13.812;2023-04-12T10:27:25;99212.19;;;11.75;47.57
21730;BME280;11027;51.030;13.812;2023-04-12T10:29:51;99212.63;;;11.72;47.86
21730;BME280;11027;51.030;13.812;2023-04-12T10:32:19;99201.72;;;11.72;48.15
21730;BME280;11027;51.030;13.812;2023-04-12T10:34:52;99206.75;;;11.69;47.79
21730;BME280;11027;51.030;13.812;2023-04-12T10:37:18;99204.22;;;11.67;47.53
21730;BME280;11027;51.030;13.812;2023-04-12T10:39:50;99197.13;;;11.66;48.06
21730;BME280;11027;51.030;13.812;2023-04-12T10:42:27;99195.41;;;11.65;48.46
21730;BME280;11027;51.030;13.812;2023-04-12T10:45:34;99186.19;;;11.66;48.98
21730;BME280;11027;51.030;13.812;2023-04-12T10:50:27;99184.94;;;11.62;48.81
21730;BME280;11027;51.030;13.812;2023-04-12T10:55:38;99171.50;;;11.60;49.36
21730;BME280;11027;51.030;13.812;2023-04-12T10:58:03;99167.97;;;11.60;50.04
21730;BME280;11027;51.030;13.812;2023-04-12T11:03:27;99146.31;;;11.72;51.13
21730;BME280;11027;51.030;13.812;2023-04-12T11:05:57;99147.56;;;11.82;52.03
21730;BME280;11027;51.030;13.812;2023-04-12T11:08:25;99157.00;;;11.87;50.47
21730;BME280;11027;51.030;13.812;2023-04-12T11:10:50;99151.53;;;11.87;50.02
21730;BME280;11027;51.030;13.812;2023-04-12T11:13:16;99140.63;;;11.87;50.27
21730;BME280;11027;51.030;13.812;2023-04-12T11:15:41;99148.41;;;11.90;51.04
21730;BME280;11027;51.030;13.812;2023-04-12T11:18:07;99129.94;;;11.92;51.08
21730;BME280;11027;51.030;13.812;2023-04-12T11:20:32;99130.31;;;11.95;50.83
21730;BME280;11027;51.030;13.812;2023-04-12T11:22:58;99129.88;;;12.05;51.34
21730;BME280;11027;51.030;13.812;2023-04-12T11:25:24;99133.59;;;12.17;51.50
21730;BME280;11027;51.030;13.812;2023-04-12T11:27:51;99120.94;;;12.30;51.39
21730;BME280;11027;51.030;13.812;2023-04-12T11:30:17;99120.63;;;12.51;51.30
21730;BME280;11027;51.030;13.812;2023-04-12T11:32:44;99109.03;;;12.63;50.46
21730;BME280;11027;51.030;13.812;2023-04-12T11:35:09;99101.78;;;12.75;49.75
21730;BME280;11027;51.030;13.812;2023-04-12T11:37:35;99105.31;;;12.82;49.91
21730;BME280;11027;51.030;13.812;2023-04-12T11:40:02;99096.19;;;12.95;49.84
21730;BME280;11027;51.030;13.812;2023-04-12T11:42:30;99084.00;;;13.16;50.13
21730;BME280;11027;51.030;13.812;2023-04-12T11:44:57;99085.78;;;13.35;49.52
21730;BME280;11027;51.030;13.812;2023-04-12T11:47:23;99071.94;;;13.67;49.70
21730;BME280;11027;51.030;13.812;2023-04-12T11:49:53;99064.56;;;14.05;48.29
21730;BME280;11027;51.030;13.812;2023-04-12T11:52:20;99059.72;;;14.37;47.62
21730;BME280;11027;51.030;13.812;2023-04-12T11:54:49;99058.31;;;14.65;47.03
21730;BME280;11027;51.030;13.812;2023-04-12T11:57:18;99058.09;;;14.90;46.68
21730;BME280;11027;51.030;13.812;2023-04-12T11:59:44;99046.19;;;14.96;45.92
21730;BME280;11027;51.030;13.812;2023-04-12T12:02:11;99044.06;;;15.10;45.21
21730;BME280;11027;51.030;13.812;2023-04-12T12:04:36;99040.88;;;15.13;45.14
21730;BME280;11027;51.030;13.812;2023-04-12T12:07:03;99032.75;;;15.18;44.59
21730;BME280;11027;51.030;13.812;2023-04-12T12:09:29;99019.84;;;15.30;44.44
21730;BME280;11027;51.030;13.812;2023-04-12T12:11:55;99014.72;;;15.34;44.42
21730;BME280;11027;51.030;13.812;2023-04-12T12:14:21;99013.75;;;15.52;43.66
21730;BME280;11027;51.030;13.812;2023-04-12T12:16:55;99009.66;;;15.66;42.96
21730;BME280;11027;51.030;13.812;2023-04-12T12:19:27;98999.03;;;15.82;42.74
21730;BME280;11027;51.030;13.812;2023-04-12T12:21:53;98993.97;;;16.02;42.12
21730;BME280;11027;51.030;13.812;2023-04-12T12:24:18;98983.03;;;16.36;42.25
21730;BME280;11027;51.030;13.812;2023-04-12T12:26:48;98984.25;;;16.57;41.38
21730;BME280;11027;51.030;13.812;2023-04-12T12:29:17;98974.91;;;16.75;40.70
21730;BME280;11027;51.030;13.812;2023-04-12T12:31:46;98959.53;;;16.91;40.36
21730;BME280;11027;51.030;13.812;2023-04-12T12:34:13;98958.44;;;17.09;40.14
21730;BME280;11027;51.030;13.812;2023-04-12T12:36:38;98951.03;;;17.31;39.90
21730;BME280;11027;51.030;13.812;2023-04-12T12:39:08;98940.97;;;17.42;39.22
21730;BME280;11027;51.030;13.812;2023-04-12T12:41:35;98931.56;;;17.60;39.43
21730;BME280;11027;51.030;13.812;2023-04-12T12:44:00;98927.91;;;17.54;38.10
21730;BME280;11027;51.030;13.812;2023-04-12T12:46:26;98926.56;;;17.57;38.56
21730;BME280;11027;51.030;13.812;2023-04-12T12:48:51;98919.66;;;17.76;38.78
21730;BME280;11027;51.030;13.812;2023-04-12T12:51:17;98924.03;;;17.99;38.45
21730;BME280;11027;51.030;13.812;2023-04-12T12:53:43;98927.31;;;18.24;37.78
21730;BME280;11027;51.030;13.812;2023-04-12T12:56:11;98907.38;;;18.44;37.28
21730;BME280;11027;51.030;13.812;2023-04-12T12:58:36;98913.41;;;18.73;37.25
21730;BME280;11027;51.030;13.812;2023-04-12T13:01:03;98911.38;;;18.95;36.51
21730;BME280;11027;51.030;13.812;2023-04-12T13:03:29;98900.94;;;19.03;36.36
21730;BME280;11027;51.030;13.812;2023-04-12T13:05:54;98896.97;;;18.88;36.48
21730;BME280;11027;51.030;13.812;2023-04-12T13:08:20;98899.47;;;18.90;36.79
21730;BME280;11027;51.030;13.812;2023-04-12T13:10:46;98893.06;;;18.79;36.59
21730;BME280;11027;51.030;13.812;2023-04-12T13:13:11;98901.75;;;18.61;36.36